createdAt,value
2019-02-28T00:00:49.202Z,992.13
2019-02-28T00:01:49.195Z,992.13
2019-02-28T00:02:49.210Z,992.13
2019-02-28T00:03:49.171Z,992.14
2019-02-28T00:04:49.161Z,992.14
2019-02-28T00:05:49.195Z,992.16
2019-02-28T00:06:49.137Z,992.16
2019-02-28T00:07:49.850Z,992.10
2019-02-28T00:08:51.029Z,992.14
2019-02-28T00:09:49.103Z,992.16
2019-02-28T00:10:49.097Z,992.15
2019-02-28T00:11:49.134Z,992.13
2019-02-28T00:12:49.073Z,992.19
2019-02-28T00:13:49.086Z,992.19
2019-02-28T00:14:49.048Z,992.19
2019-02-28T00:15:49.039Z,992.19
2019-02-28T00:16:49.027Z,992.16
2019-02-28T00:17:49.070Z,992.15
2019-02-28T00:18:49.978Z,992.13
2019-02-28T00:19:48.996Z,992.14
2019-02-28T00:20:48.987Z,992.13
2019-02-28T00:21:48.981Z,992.05
2019-02-28T00:22:49.434Z,992.10
2019-02-28T00:23:49.001Z,992.04
2019-02-28T00:24:48.945Z,992.03
2019-02-28T00:25:48.931Z,992.02
2019-02-28T00:26:48.944Z,992.01
2019-02-28T00:27:48.909Z,991.99
2019-02-28T00:28:48.927Z,992.00
2019-02-28T00:29:48.940Z,991.99
2019-02-28T00:30:48.880Z,992.03
2019-02-28T00:31:50.054Z,992.01
2019-02-28T00:32:48.856Z,992.03
2019-02-28T00:33:48.876Z,992.01
2019-02-28T00:34:48.837Z,992.02
2019-02-28T00:35:48.825Z,992.00
2019-02-28T00:36:50.354Z,991.98
2019-02-28T00:37:48.800Z,992.00
2019-02-28T00:38:48.815Z,991.95
2019-02-28T00:39:48.780Z,991.97
2019-02-28T00:40:48.771Z,991.98
2019-02-28T00:41:48.759Z,991.99
2019-02-28T00:42:50.903Z,991.99
2019-02-28T00:43:48.764Z,991.94
2019-02-28T00:44:48.723Z,991.97
2019-02-28T00:45:48.713Z,991.93
2019-02-28T00:46:48.702Z,991.94
2019-02-28T00:47:48.702Z,991.95
2019-02-28T00:48:48.759Z,991.93
2019-02-28T00:49:48.671Z,991.90
2019-02-28T00:50:48.661Z,991.94
2019-02-28T00:51:48.651Z,991.90
2019-02-28T00:52:48.644Z,991.88
2019-02-28T00:53:48.684Z,991.88
2019-02-28T00:54:48.645Z,991.84
2019-02-28T00:55:48.624Z,991.84
2019-02-28T00:56:52.488Z,991.80
2019-02-28T00:57:48.590Z,991.81
2019-02-28T00:58:48.578Z,991.80
2019-02-28T00:59:48.595Z,991.75
2019-02-28T01:00:48.553Z,991.80
2019-02-28T01:01:48.592Z,991.68
2019-02-28T01:02:52.090Z,991.72
2019-02-28T01:03:48.521Z,991.70
2019-02-28T01:04:48.542Z,991.67
2019-02-28T01:05:48.500Z,991.67
2019-02-28T01:06:48.490Z,991.68
2019-02-28T01:07:49.084Z,991.71
2019-02-28T01:08:48.508Z,991.69
2019-02-28T01:09:48.487Z,991.67
2019-02-28T01:10:48.446Z,991.69
2019-02-28T01:11:48.433Z,991.66
2019-02-28T01:12:53.118Z,991.67
2019-02-28T01:13:49.412Z,991.67
2019-02-28T01:14:48.426Z,991.64
2019-02-28T01:15:48.419Z,991.60
2019-02-28T01:16:50.271Z,991.59
2019-02-28T01:17:48.371Z,991.62
2019-02-28T01:18:48.377Z,991.58
2019-02-28T01:19:48.388Z,991.56
2019-02-28T01:20:50.700Z,991.52
2019-02-28T01:21:48.362Z,991.53
2019-02-28T01:22:48.315Z,991.52
2019-02-28T01:23:48.302Z,991.52
2019-02-28T01:24:48.314Z,991.54
2019-02-28T01:25:48.286Z,991.47
2019-02-28T01:26:48.272Z,991.49
2019-02-28T01:27:48.293Z,991.43
2019-02-28T01:28:48.251Z,991.46
2019-02-28T01:29:48.260Z,991.47
2019-02-28T01:30:48.234Z,991.43
2019-02-28T01:31:48.218Z,991.43
2019-02-28T01:32:50.856Z,991.39
2019-02-28T01:33:48.220Z,991.39
2019-02-28T01:34:48.206Z,991.38
2019-02-28T01:35:48.173Z,991.41
2019-02-28T01:36:48.806Z,991.34
2019-02-28T01:37:48.151Z,991.32
2019-02-28T01:38:48.138Z,991.33
2019-02-28T01:39:48.210Z,991.31
2019-02-28T01:40:48.120Z,991.35
2019-02-28T01:41:48.110Z,991.30
2019-02-28T01:42:48.099Z,991.33
2019-02-28T01:43:48.087Z,991.29
2019-02-28T01:44:48.103Z,991.31
2019-02-28T01:45:48.122Z,991.35
2019-02-28T01:46:48.716Z,991.36
2019-02-28T01:47:48.068Z,991.30
2019-02-28T01:48:48.032Z,991.27
2019-02-28T01:49:48.047Z,991.30
2019-02-28T01:50:48.013Z,991.24
2019-02-28T01:51:48.005Z,991.26
2019-02-28T01:52:48.052Z,991.25
2019-02-28T01:53:50.406Z,991.20
2019-02-28T01:54:49.114Z,991.21
2019-02-28T01:55:47.955Z,991.22
2019-02-28T01:56:47.961Z,991.24
2019-02-28T01:57:47.937Z,991.22
2019-02-28T01:58:50.368Z,991.17
2019-02-28T01:59:47.911Z,991.18
2019-02-28T02:00:47.923Z,991.18
2019-02-28T02:01:47.896Z,991.20
2019-02-28T02:02:47.880Z,991.20
2019-02-28T02:03:47.869Z,991.17
2019-02-28T02:04:47.881Z,991.23
2019-02-28T02:05:48.297Z,991.20
2019-02-28T02:06:47.850Z,991.21
2019-02-28T02:07:47.829Z,991.14
2019-02-28T02:08:47.817Z,991.17
2019-02-28T02:09:47.810Z,991.14
2019-02-28T02:10:47.887Z,991.14
2019-02-28T02:11:47.785Z,991.14
2019-02-28T02:12:47.788Z,991.11
2019-02-28T02:13:47.765Z,991.10
2019-02-28T02:14:47.756Z,991.05
2019-02-28T02:15:50.813Z,991.05
2019-02-28T02:16:47.729Z,991.01
2019-02-28T02:17:47.776Z,990.99
2019-02-28T02:18:47.709Z,990.97
2019-02-28T02:19:49.408Z,990.94
2019-02-28T02:20:47.717Z,990.93
2019-02-28T02:21:47.680Z,990.96
2019-02-28T02:22:47.666Z,990.92
2019-02-28T02:23:49.579Z,990.91
2019-02-28T02:24:48.642Z,990.84
2019-02-28T02:25:47.655Z,990.90
2019-02-28T02:26:47.621Z,990.86
2019-02-28T02:27:52.792Z,990.82
2019-02-28T02:28:48.602Z,990.81
2019-02-28T02:29:47.646Z,990.79
2019-02-28T02:30:50.908Z,990.79
2019-02-28T02:31:47.568Z,990.81
2019-02-28T02:32:47.555Z,990.81
2019-02-28T02:33:52.433Z,990.79
2019-02-28T02:34:48.535Z,990.73
2019-02-28T02:35:47.550Z,990.75
2019-02-28T02:36:52.985Z,990.70
2019-02-28T02:37:48.499Z,990.68
2019-02-28T02:38:47.494Z,990.69
2019-02-28T02:39:50.142Z,990.64
2019-02-28T02:40:47.491Z,990.66
2019-02-28T02:41:47.456Z,990.63
2019-02-28T02:42:49.753Z,990.61
2019-02-28T02:43:47.474Z,990.57
2019-02-28T02:44:47.421Z,990.55
2019-02-28T02:45:47.447Z,990.53
2019-02-28T02:46:47.405Z,990.55
2019-02-28T02:47:47.392Z,990.52
2019-02-28T02:48:47.380Z,990.50
2019-02-28T02:49:47.410Z,990.49
2019-02-28T02:50:47.358Z,990.47
2019-02-28T02:51:50.545Z,990.46
2019-02-28T02:52:47.336Z,990.47
2019-02-28T02:53:47.325Z,990.48
2019-02-28T02:54:47.312Z,990.44
2019-02-28T02:55:47.362Z,990.46
2019-02-28T02:56:47.321Z,990.45
2019-02-28T02:57:51.787Z,990.41
2019-02-28T02:58:47.267Z,990.43
2019-02-28T02:59:47.255Z,990.41
2019-02-28T03:00:51.187Z,990.38
2019-02-28T03:01:47.263Z,990.35
2019-02-28T03:02:47.278Z,990.35
2019-02-28T03:03:47.217Z,990.33
2019-02-28T03:04:47.202Z,990.30
2019-02-28T03:05:47.190Z,990.28
2019-02-28T03:06:47.209Z,990.30
2019-02-28T03:07:47.183Z,990.30
2019-02-28T03:08:47.200Z,990.26
2019-02-28T03:09:47.147Z,990.30
2019-02-28T03:10:47.147Z,990.28
2019-02-28T03:11:47.150Z,990.27
2019-02-28T03:12:47.125Z,990.27
2019-02-28T03:13:47.108Z,990.23
2019-02-28T03:14:48.747Z,990.29
2019-02-28T03:15:47.112Z,990.27
2019-02-28T03:16:47.095Z,990.26
2019-02-28T03:17:48.639Z,990.27
2019-02-28T03:18:47.049Z,990.23
2019-02-28T03:19:47.037Z,990.28
2019-02-28T03:20:47.032Z,990.25
2019-02-28T03:21:51.292Z,990.26
2019-02-28T03:22:47.014Z,990.21
2019-02-28T03:23:46.996Z,990.21
2019-02-28T03:24:50.734Z,990.16
2019-02-28T03:25:47.968Z,990.16
2019-02-28T03:26:46.997Z,990.19
2019-02-28T03:27:46.950Z,990.18
2019-02-28T03:28:46.977Z,990.14
2019-02-28T03:29:46.927Z,990.15
2019-02-28T03:30:46.917Z,990.11
2019-02-28T03:31:55.422Z,990.11
2019-02-28T03:32:47.929Z,990.09
2019-02-28T03:33:46.883Z,990.10
2019-02-28T03:34:54.782Z,990.11
2019-02-28T03:35:47.893Z,990.13
2019-02-28T03:36:55.166Z,990.13
2019-02-28T03:37:47.837Z,990.13
2019-02-28T03:38:49.788Z,990.12
2019-02-28T03:39:46.815Z,990.09
2019-02-28T03:40:46.803Z,990.10
2019-02-28T03:41:49.087Z,990.08
2019-02-28T03:42:47.837Z,990.09
2019-02-28T03:43:46.783Z,990.07
2019-02-28T03:44:46.760Z,990.05
2019-02-28T03:45:46.749Z,990.04
2019-02-28T03:46:47.947Z,990.06
2019-02-28T03:47:46.729Z,990.09
2019-02-28T03:48:46.775Z,990.12
2019-02-28T03:49:49.903Z,990.12
2019-02-28T03:50:46.692Z,990.07
2019-02-28T03:51:46.681Z,990.11
2019-02-28T03:52:46.695Z,990.07
2019-02-28T03:53:46.666Z,990.16
2019-02-28T03:54:46.717Z,990.12
2019-02-28T03:55:46.648Z,990.13
2019-02-28T03:56:51.233Z,990.19
2019-02-28T03:57:47.640Z,990.19
2019-02-28T03:58:46.633Z,990.17
2019-02-28T03:59:46.598Z,990.16
2019-02-28T04:00:46.626Z,990.17
2019-02-28T04:01:46.628Z,990.18
2019-02-28T04:02:46.596Z,990.21
2019-02-28T04:03:46.547Z,990.18
2019-02-28T04:04:50.192Z,990.16
2019-02-28T04:05:46.525Z,990.15
2019-02-28T04:06:46.581Z,990.16
2019-02-28T04:07:52.883Z,990.21
2019-02-28T04:08:47.491Z,990.19
2019-02-28T04:09:46.483Z,990.20
2019-02-28T04:10:46.477Z,990.18
2019-02-28T04:11:46.461Z,990.18
2019-02-28T04:12:47.089Z,990.22
2019-02-28T04:13:46.451Z,990.18
2019-02-28T04:14:46.431Z,990.18
2019-02-28T04:16:01.443Z,990.18
2019-02-28T04:16:52.488Z,990.21
2019-02-28T04:17:47.420Z,990.19
2019-02-28T04:18:46.855Z,990.24
2019-02-28T04:19:46.372Z,990.21
2019-02-28T04:20:46.377Z,990.20
2019-02-28T04:21:47.713Z,990.19
2019-02-28T04:22:46.368Z,990.20
2019-02-28T04:23:46.328Z,990.18
2019-02-28T04:24:47.492Z,990.18
2019-02-28T04:25:46.304Z,990.13
2019-02-28T04:26:46.310Z,990.17
2019-02-28T04:27:46.305Z,990.13
2019-02-28T04:28:46.275Z,990.09
2019-02-28T04:29:46.273Z,990.10
2019-02-28T04:30:46.285Z,990.14
2019-02-28T04:31:46.237Z,990.10
2019-02-28T04:32:46.249Z,990.06
2019-02-28T04:33:46.215Z,990.06
2019-02-28T04:34:49.212Z,990.04
2019-02-28T04:35:46.190Z,990.02
2019-02-28T04:36:46.229Z,990.00
2019-02-28T04:37:47.266Z,990.00
2019-02-28T04:38:46.160Z,989.96
2019-02-28T04:39:46.156Z,989.92
2019-02-28T04:40:46.135Z,989.90
2019-02-28T04:41:46.131Z,989.90
2019-02-28T04:42:46.152Z,989.89
2019-02-28T04:43:46.165Z,989.86
2019-02-28T04:44:46.096Z,989.86
2019-02-28T04:45:46.080Z,989.84
2019-02-28T04:46:46.073Z,989.84
2019-02-28T04:47:46.060Z,989.79
2019-02-28T04:48:48.454Z,989.81
2019-02-28T04:49:46.061Z,989.84
2019-02-28T04:50:46.025Z,989.83
2019-02-28T04:51:46.028Z,989.86
2019-02-28T04:52:48.022Z,989.83
2019-02-28T04:53:46.014Z,989.84
2019-02-28T04:54:45.979Z,989.89
2019-02-28T04:55:46.045Z,989.89
2019-02-28T04:56:46.561Z,989.94
2019-02-28T04:57:45.947Z,989.89
2019-02-28T04:58:45.959Z,989.94
2019-02-28T04:59:45.929Z,989.93
2019-02-28T05:00:45.917Z,989.92
2019-02-28T05:01:46.453Z,989.91
2019-02-28T05:02:45.895Z,989.92
2019-02-28T05:03:45.912Z,989.91
2019-02-28T05:04:45.871Z,989.91
2019-02-28T05:05:46.928Z,989.88
2019-02-28T05:06:45.851Z,989.91
2019-02-28T05:07:45.938Z,989.90
2019-02-28T05:08:45.853Z,989.92
2019-02-28T05:09:48.148Z,989.90
2019-02-28T05:10:45.821Z,989.88
2019-02-28T05:11:45.800Z,989.86
2019-02-28T05:12:45.783Z,989.89
2019-02-28T05:13:48.718Z,989.87
2019-02-28T05:14:45.769Z,989.86
2019-02-28T05:15:45.760Z,989.84
2019-02-28T05:16:47.535Z,989.85
2019-02-28T05:17:45.729Z,989.87
2019-02-28T05:18:45.776Z,989.83
2019-02-28T05:19:45.750Z,989.82
2019-02-28T05:20:46.114Z,989.86
2019-02-28T05:21:45.692Z,989.85
2019-02-28T05:22:45.675Z,989.85
2019-02-28T05:23:45.690Z,989.87
2019-02-28T05:24:45.656Z,989.84
2019-02-28T05:25:45.642Z,989.91
2019-02-28T05:26:45.694Z,989.90
2019-02-28T05:27:45.625Z,989.89
2019-02-28T05:28:45.647Z,989.96
2019-02-28T05:29:45.600Z,989.92
2019-02-28T05:30:45.590Z,989.96
2019-02-28T05:31:45.581Z,989.93
2019-02-28T05:32:45.617Z,989.91
2019-02-28T05:33:45.592Z,989.95
2019-02-28T05:34:47.389Z,989.94
2019-02-28T05:35:46.537Z,989.90
2019-02-28T05:36:45.533Z,989.87
2019-02-28T05:37:48.132Z,989.88
2019-02-28T05:38:45.533Z,989.86
2019-02-28T05:39:45.547Z,989.89
2019-02-28T05:40:45.497Z,989.91
2019-02-28T05:41:48.927Z,989.90
2019-02-28T05:42:45.465Z,989.85
2019-02-28T05:43:45.479Z,989.87
2019-02-28T05:44:45.444Z,989.90
2019-02-28T05:45:48.689Z,989.88
2019-02-28T05:46:45.419Z,989.93
2019-02-28T05:47:47.100Z,989.92
2019-02-28T05:48:45.435Z,989.94
2019-02-28T05:49:45.384Z,989.94
2019-02-28T05:50:46.817Z,989.95
2019-02-28T05:51:45.364Z,989.97
2019-02-28T05:52:45.378Z,990.02
2019-02-28T05:53:45.347Z,989.95
2019-02-28T05:54:47.209Z,989.96
2019-02-28T05:55:45.326Z,989.96
2019-02-28T05:56:45.313Z,989.88
2019-02-28T05:57:45.299Z,989.91
2019-02-28T05:58:45.330Z,989.90
2019-02-28T05:59:45.302Z,989.89
2019-02-28T06:00:45.272Z,989.95
2019-02-28T06:01:47.045Z,989.92
2019-02-28T06:02:45.258Z,989.91
2019-02-28T06:03:45.238Z,989.88
2019-02-28T06:04:45.247Z,989.90
2019-02-28T06:05:46.425Z,989.82
2019-02-28T06:06:45.205Z,989.86
2019-02-28T06:07:45.209Z,989.86
2019-02-28T06:08:45.184Z,989.86
2019-02-28T06:09:45.614Z,989.88
2019-02-28T06:10:45.162Z,989.84
2019-02-28T06:11:45.215Z,989.87
2019-02-28T06:12:45.197Z,989.86
2019-02-28T06:13:45.142Z,989.82
2019-02-28T06:14:45.159Z,989.84
2019-02-28T06:15:45.106Z,989.81
2019-02-28T06:16:46.880Z,989.84
2019-02-28T06:17:45.126Z,989.83
2019-02-28T06:18:45.076Z,989.83
2019-02-28T06:19:45.092Z,989.83
2019-02-28T06:20:45.055Z,989.88
2019-02-28T06:21:45.043Z,989.84
2019-02-28T06:22:45.039Z,989.80
2019-02-28T06:23:45.071Z,989.84
2019-02-28T06:24:45.915Z,989.85
2019-02-28T06:25:45.003Z,989.84
2019-02-28T06:26:44.993Z,989.84
2019-02-28T06:27:49.032Z,989.90
2019-02-28T06:28:45.980Z,989.89
2019-02-28T06:29:44.993Z,989.84
2019-02-28T06:30:44.949Z,989.87
2019-02-28T06:31:45.554Z,989.85
2019-02-28T06:32:44.966Z,989.86
2019-02-28T06:33:44.952Z,989.83
2019-02-28T06:34:44.934Z,989.84
2019-02-28T06:35:44.898Z,989.83
2019-02-28T06:36:44.895Z,989.85
2019-02-28T06:37:44.949Z,989.86
2019-02-28T06:38:44.868Z,989.90
2019-02-28T06:39:44.895Z,989.88
2019-02-28T06:40:44.844Z,989.82
2019-02-28T06:41:44.837Z,989.83
2019-02-28T06:42:46.713Z,989.82
2019-02-28T06:43:44.842Z,989.86
2019-02-28T06:44:44.810Z,989.84
2019-02-28T06:45:44.820Z,989.83
2019-02-28T06:46:44.789Z,989.88
2019-02-28T06:47:47.987Z,989.88
2019-02-28T06:48:44.762Z,989.89
2019-02-28T06:49:44.786Z,989.91
2019-02-28T06:50:45.598Z,989.87
2019-02-28T06:51:44.728Z,989.86
2019-02-28T06:52:44.712Z,989.83
2019-02-28T06:53:44.708Z,989.83
2019-02-28T06:54:44.720Z,989.83
2019-02-28T06:55:46.423Z,989.84
2019-02-28T06:56:44.668Z,989.79
2019-02-28T06:57:44.686Z,989.78
2019-02-28T06:58:44.648Z,989.78
2019-02-28T06:59:44.649Z,989.74
2019-02-28T07:00:47.422Z,989.73
2019-02-28T07:01:44.616Z,989.75
2019-02-28T07:02:44.654Z,989.74
2019-02-28T07:03:53.297Z,989.71
2019-02-28T07:04:49.456Z,989.74
2019-02-28T07:05:44.595Z,989.71
2019-02-28T07:06:44.563Z,989.73
2019-02-28T07:07:45.695Z,989.65
2019-02-28T07:08:44.549Z,989.63
2019-02-28T07:09:44.558Z,989.66
2019-02-28T07:10:44.976Z,989.66
2019-02-28T07:11:44.506Z,989.68
2019-02-28T07:12:44.680Z,989.63
2019-02-28T07:13:44.500Z,989.69
2019-02-28T07:14:48.618Z,989.69
2019-02-28T07:15:45.484Z,989.66
2019-02-28T07:16:44.478Z,989.66
2019-02-28T07:17:46.434Z,989.61
2019-02-28T07:18:44.428Z,989.62
2019-02-28T07:19:44.417Z,989.60
2019-02-28T07:20:44.447Z,989.54
2019-02-28T07:21:44.490Z,989.59
2019-02-28T07:22:44.399Z,989.54
2019-02-28T07:23:44.372Z,989.54
2019-02-28T07:24:44.362Z,989.53
2019-02-28T07:25:47.309Z,989.54
2019-02-28T07:26:44.347Z,989.62
2019-02-28T07:27:44.329Z,989.55
2019-02-28T07:28:44.338Z,989.60
2019-02-28T07:29:44.308Z,989.58
2019-02-28T07:30:44.321Z,989.56
2019-02-28T07:31:44.286Z,989.58
2019-02-28T07:32:44.283Z,989.64
2019-02-28T07:33:44.631Z,989.54
2019-02-28T07:34:44.269Z,989.59
2019-02-28T07:35:44.273Z,989.55
2019-02-28T07:36:44.751Z,989.60
2019-02-28T07:37:44.218Z,989.57
2019-02-28T07:38:44.208Z,989.61
2019-02-28T07:39:44.197Z,989.64
2019-02-28T07:40:45.668Z,989.69
2019-02-28T07:41:44.198Z,989.63
2019-02-28T07:42:44.163Z,989.58
2019-02-28T07:43:46.115Z,989.58
2019-02-28T07:44:44.150Z,989.59
2019-02-28T07:45:44.130Z,989.56
2019-02-28T07:46:44.151Z,989.53
2019-02-28T07:47:44.118Z,989.56
2019-02-28T07:48:44.100Z,989.49
2019-02-28T07:49:44.088Z,989.47
2019-02-28T07:50:46.706Z,989.43
2019-02-28T07:51:44.088Z,989.47
2019-02-28T07:52:44.067Z,989.47
2019-02-28T07:53:44.064Z,989.47
2019-02-28T07:54:44.044Z,989.46
2019-02-28T07:55:44.024Z,989.46
2019-02-28T07:56:44.365Z,989.45
2019-02-28T07:57:44.010Z,989.48
2019-02-28T07:58:44.004Z,989.51
2019-02-28T07:59:44.008Z,989.46
2019-02-28T08:00:43.969Z,989.50
2019-02-28T08:01:43.988Z,989.52
2019-02-28T08:02:43.947Z,989.48
2019-02-28T08:03:44.908Z,989.46
2019-02-28T08:04:43.927Z,989.45
2019-02-28T08:05:43.927Z,989.48
2019-02-28T08:06:43.926Z,989.49
2019-02-28T08:07:50.309Z,989.48
2019-02-28T08:08:44.896Z,989.42
2019-02-28T08:09:43.869Z,989.42
2019-02-28T08:10:43.857Z,989.41
2019-02-28T08:11:43.893Z,989.40
2019-02-28T08:12:43.835Z,989.41
2019-02-28T08:13:43.824Z,989.40
2019-02-28T08:14:47.069Z,989.41
2019-02-28T08:15:43.803Z,989.41
2019-02-28T08:16:43.815Z,989.34
2019-02-28T08:17:44.659Z,989.38
2019-02-28T08:18:43.779Z,989.31
2019-02-28T08:19:43.768Z,989.31
2019-02-28T08:20:43.749Z,989.31
2019-02-28T08:21:47.617Z,989.24
2019-02-28T08:22:44.736Z,989.21
2019-02-28T08:23:43.718Z,989.19
2019-02-28T08:24:43.727Z,989.17
2019-02-28T08:25:43.694Z,989.20
2019-02-28T08:26:43.807Z,989.17
2019-02-28T08:27:43.671Z,989.11
2019-02-28T08:28:43.662Z,989.10
2019-02-28T08:29:45.804Z,989.03
2019-02-28T08:30:43.694Z,989.05
2019-02-28T08:31:43.648Z,989.03
2019-02-28T08:32:46.808Z,989.01
2019-02-28T08:33:43.604Z,989.03
2019-02-28T08:34:43.616Z,989.08
2019-02-28T08:35:43.583Z,989.06
2019-02-28T08:36:46.942Z,989.03
2019-02-28T08:37:43.561Z,989.07
2019-02-28T08:38:43.804Z,989.09
2019-02-28T08:39:43.549Z,989.08
2019-02-28T08:40:43.529Z,989.14
2019-02-28T08:41:43.519Z,989.08
2019-02-28T08:42:43.558Z,989.07
2019-02-28T08:43:44.571Z,989.04
2019-02-28T08:44:43.518Z,989.04
2019-02-28T08:45:43.488Z,989.08
2019-02-28T08:46:46.245Z,989.05
2019-02-28T08:47:43.699Z,989.08
2019-02-28T08:48:44.213Z,989.09
2019-02-28T08:49:45.508Z,989.05
2019-02-28T08:50:43.424Z,989.09
2019-02-28T08:51:43.423Z,989.12
2019-02-28T08:52:43.427Z,989.13
2019-02-28T08:53:43.388Z,989.14
2019-02-28T08:54:43.379Z,989.17
2019-02-28T08:55:44.395Z,989.17
2019-02-28T08:56:46.160Z,989.22
2019-02-28T08:57:44.462Z,989.23
2019-02-28T08:58:43.331Z,989.23
2019-02-28T08:59:43.321Z,989.23
2019-02-28T09:00:43.329Z,989.22
2019-02-28T09:01:44.253Z,989.25
2019-02-28T09:02:43.342Z,989.24
2019-02-28T09:03:43.307Z,989.16
2019-02-28T09:04:44.961Z,989.18
2019-02-28T09:05:43.254Z,989.09
2019-02-28T09:06:43.252Z,989.09
2019-02-28T09:07:43.295Z,989.00
2019-02-28T09:08:43.248Z,988.96
2019-02-28T09:09:43.214Z,989.00
2019-02-28T09:10:43.704Z,988.96
2019-02-28T09:11:43.186Z,989.00
2019-02-28T09:12:43.200Z,989.04
2019-02-28T09:13:43.638Z,989.06
2019-02-28T09:14:43.154Z,989.10
2019-02-28T09:15:43.166Z,989.02
2019-02-28T09:16:43.130Z,989.09
2019-02-28T09:17:43.152Z,989.06
2019-02-28T09:18:44.800Z,989.07
2019-02-28T09:19:43.100Z,989.08
2019-02-28T09:20:45.095Z,989.12
2019-02-28T09:21:43.087Z,989.12
2019-02-28T09:22:43.069Z,989.14
2019-02-28T09:23:43.080Z,989.10
2019-02-28T09:24:43.680Z,989.12
2019-02-28T09:25:43.035Z,989.15
2019-02-28T09:26:43.032Z,989.22
2019-02-28T09:27:43.078Z,989.17
2019-02-28T09:28:44.464Z,989.15
2019-02-28T09:29:42.992Z,989.13
2019-02-28T09:30:42.980Z,989.11
2019-02-28T09:31:42.970Z,989.13
2019-02-28T09:32:45.203Z,989.09
2019-02-28T09:33:44.074Z,989.04
2019-02-28T09:34:42.952Z,989.03
2019-02-28T09:35:46.275Z,989.00
2019-02-28T09:36:42.934Z,988.94
2019-02-28T09:37:42.904Z,988.88
2019-02-28T09:38:45.296Z,988.87
2019-02-28T09:39:42.892Z,988.92
2019-02-28T09:40:42.875Z,988.91
2019-02-28T09:41:42.892Z,988.87
2019-02-28T09:42:44.520Z,988.82
2019-02-28T09:43:43.128Z,988.88
2019-02-28T09:44:42.859Z,988.81
2019-02-28T09:45:42.818Z,988.78
2019-02-28T09:46:42.808Z,988.78
2019-02-28T09:47:42.830Z,988.81
2019-02-28T09:48:42.854Z,988.84
2019-02-28T09:49:44.268Z,988.97
2019-02-28T09:50:43.149Z,988.95
2019-02-28T09:51:42.792Z,988.96
2019-02-28T09:52:42.748Z,988.93
2019-02-28T09:53:42.862Z,988.84
2019-02-28T09:54:42.744Z,988.87
2019-02-28T09:55:42.709Z,988.91
2019-02-28T09:56:44.591Z,988.90
2019-02-28T09:57:42.690Z,988.91
2019-02-28T09:58:42.898Z,988.93
2019-02-28T09:59:42.706Z,988.79
2019-02-28T10:00:43.334Z,988.83
2019-02-28T10:01:42.654Z,988.81
2019-02-28T10:02:43.985Z,988.80
2019-02-28T10:03:42.654Z,988.83
2019-02-28T10:04:42.615Z,988.81
2019-02-28T10:05:43.312Z,988.82
2019-02-28T10:06:42.646Z,988.86
2019-02-28T10:07:42.647Z,988.96
2019-02-28T10:08:42.615Z,988.93
2019-02-28T10:09:44.425Z,988.92
2019-02-28T10:10:42.549Z,988.90
2019-02-28T10:11:42.537Z,988.96
2019-02-28T10:12:43.220Z,988.93
2019-02-28T10:13:42.572Z,988.93
2019-02-28T10:14:42.512Z,989.00
2019-02-28T10:15:42.538Z,988.96
2019-02-28T10:16:42.507Z,988.95
2019-02-28T10:17:42.482Z,989.03
2019-02-28T10:18:42.653Z,989.02
2019-02-28T10:19:45.761Z,988.90
2019-02-28T10:20:42.491Z,988.83
2019-02-28T10:21:42.422Z,988.91
2019-02-28T10:22:44.415Z,988.82
2019-02-28T10:23:42.908Z,988.78
2019-02-28T10:24:42.553Z,988.78
2019-02-28T10:25:43.696Z,988.80
2019-02-28T10:26:42.370Z,988.80
2019-02-28T10:27:42.372Z,988.85
2019-02-28T10:28:42.348Z,988.85
2019-02-28T10:29:42.729Z,988.84
2019-02-28T10:30:42.336Z,988.89
2019-02-28T10:31:42.612Z,988.87
2019-02-28T10:32:43.339Z,988.84
2019-02-28T10:33:42.316Z,988.85
2019-02-28T10:34:42.327Z,988.85
2019-02-28T10:35:42.271Z,988.82
2019-02-28T10:36:44.391Z,988.86
2019-02-28T10:37:43.418Z,988.77
2019-02-28T10:38:42.575Z,988.74
2019-02-28T10:39:43.811Z,988.69
2019-02-28T10:40:42.218Z,988.70
2019-02-28T10:41:42.237Z,988.68
2019-02-28T10:42:42.197Z,988.70
2019-02-28T10:43:42.225Z,988.76
2019-02-28T10:44:42.275Z,988.75
2019-02-28T10:45:42.328Z,988.69
2019-02-28T10:46:42.151Z,988.77
2019-02-28T10:47:42.179Z,988.67
2019-02-28T10:48:50.637Z,988.76
2019-02-28T10:49:43.143Z,988.84
2019-02-28T10:50:42.128Z,988.87
2019-02-28T10:51:44.662Z,988.86
2019-02-28T10:52:43.083Z,988.91
2019-02-28T10:53:42.230Z,988.84
2019-02-28T10:54:42.945Z,988.88
2019-02-28T10:55:42.628Z,988.81
2019-02-28T10:56:42.058Z,988.89
2019-02-28T10:57:42.048Z,988.85
2019-02-28T10:58:42.018Z,988.84
2019-02-28T10:59:42.127Z,988.82
2019-02-28T11:00:41.993Z,988.87
2019-02-28T11:01:42.688Z,988.81
2019-02-28T11:02:42.017Z,988.88
2019-02-28T11:03:42.036Z,988.84
2019-02-28T11:04:43.828Z,988.88
2019-02-28T11:05:41.959Z,988.87
2019-02-28T11:06:42.206Z,988.89
2019-02-28T11:07:41.922Z,988.88
2019-02-28T11:08:44.463Z,988.87
2019-02-28T11:09:42.921Z,988.85
2019-02-28T11:10:41.934Z,988.88
2019-02-28T11:11:42.589Z,988.86
2019-02-28T11:12:41.890Z,988.86
2019-02-28T11:13:41.856Z,988.86
2019-02-28T11:14:41.892Z,988.83
2019-02-28T11:15:41.935Z,988.82
2019-02-28T11:16:41.818Z,988.85
2019-02-28T11:17:41.828Z,988.87
2019-02-28T11:18:42.711Z,988.85
2019-02-28T11:19:41.784Z,988.80
2019-02-28T11:20:41.839Z,988.87
2019-02-28T11:21:41.769Z,988.87
2019-02-28T11:22:41.751Z,988.88
2019-02-28T11:23:41.739Z,988.81
2019-02-28T11:24:41.728Z,988.83
2019-02-28T11:25:41.743Z,988.76
2019-02-28T11:26:44.763Z,988.80
2019-02-28T11:27:41.694Z,988.71
2019-02-28T11:28:41.689Z,988.81
2019-02-28T11:29:41.674Z,988.77
2019-02-28T11:30:44.751Z,988.87
2019-02-28T11:31:41.652Z,988.83
2019-02-28T11:32:41.667Z,988.74
2019-02-28T11:33:41.640Z,988.72
2019-02-28T11:34:41.619Z,988.72
2019-02-28T11:35:41.633Z,988.69
2019-02-28T11:36:41.594Z,988.67
2019-02-28T11:37:42.369Z,988.67
2019-02-28T11:38:41.580Z,988.64
2019-02-28T11:39:41.563Z,988.61
2019-02-28T11:40:43.954Z,988.65
2019-02-28T11:41:41.549Z,988.66
2019-02-28T11:42:41.536Z,988.63
2019-02-28T11:43:41.523Z,988.57
2019-02-28T11:44:46.275Z,988.57
2019-02-28T11:45:42.517Z,988.63
2019-02-28T11:46:41.485Z,988.62
2019-02-28T11:47:42.677Z,988.67
2019-02-28T11:48:41.463Z,988.57
2019-02-28T11:49:41.454Z,988.56
2019-02-28T11:50:44.727Z,988.55
2019-02-28T11:51:41.448Z,988.47
2019-02-28T11:52:41.419Z,988.49
2019-02-28T11:53:41.411Z,988.52
2019-02-28T11:54:41.410Z,988.52
2019-02-28T11:55:41.409Z,988.48
2019-02-28T11:56:41.379Z,988.46
2019-02-28T11:57:42.125Z,988.48
2019-02-28T11:58:41.365Z,988.41
2019-02-28T11:59:41.344Z,988.53
2019-02-28T12:00:41.357Z,988.44
2019-02-28T12:01:42.471Z,988.48
2019-02-28T12:02:42.308Z,988.46
2019-02-28T12:03:41.313Z,988.46
2019-02-28T12:04:41.318Z,988.46
2019-02-28T12:05:41.310Z,988.44
2019-02-28T12:06:41.264Z,988.45
2019-02-28T12:07:41.253Z,988.43
2019-02-28T12:08:41.657Z,988.39
2019-02-28T12:09:41.248Z,988.36
2019-02-28T12:10:41.220Z,988.36
2019-02-28T12:11:41.235Z,988.44
2019-02-28T12:12:41.574Z,988.45
2019-02-28T12:13:41.188Z,988.40
2019-02-28T12:14:41.176Z,988.37
2019-02-28T12:15:41.200Z,988.35
2019-02-28T12:16:41.179Z,988.31
2019-02-28T12:17:41.144Z,988.30
2019-02-28T12:18:41.139Z,988.30
2019-02-28T12:19:41.126Z,988.22
2019-02-28T12:20:41.118Z,988.27
2019-02-28T12:21:41.284Z,988.18
2019-02-28T12:22:44.003Z,988.24
2019-02-28T12:23:42.075Z,988.24
2019-02-28T12:24:41.070Z,988.25
2019-02-28T12:25:42.927Z,988.30
2019-02-28T12:26:41.067Z,988.43
2019-02-28T12:27:41.049Z,988.30
2019-02-28T12:28:41.022Z,988.26